createdAt,value
2022-09-07T00:08:36.830Z,18.55
2022-09-07T00:18:43.792Z,18.38
2022-09-07T00:28:50.345Z,18.15
2022-09-07T00:38:54.556Z,18.17
2022-09-07T00:49:00.516Z,18.01
2022-09-07T00:59:04.645Z,18.14
2022-09-07T01:09:11.718Z,17.75
2022-09-07T01:19:14.646Z,17.71
2022-09-07T01:29:33.106Z,17.49
2022-09-07T01:39:48.136Z,17.39
2022-09-07T01:50:19.076Z,17.48
2022-09-07T02:00:22.419Z,17.42
2022-09-07T02:10:41.873Z,17.51
2022-09-07T02:20:50.475Z,17.65
2022-09-07T02:30:53.670Z,17.52
2022-09-07T02:40:59.333Z,17.32
2022-09-07T03:01:54.663Z,17.21
2022-09-07T03:11:58.129Z,17.22
2022-09-07T03:22:01.086Z,17.02
2022-09-07T03:32:04.180Z,16.99
2022-09-07T03:42:07.330Z,16.75
2022-09-07T03:52:10.673Z,16.79
2022-09-07T04:02:14.362Z,16.67
2022-09-07T04:12:17.772Z,16.73
2022-09-07T04:22:20.998Z,16.71
2022-09-07T04:32:24.013Z,16.73
2022-09-07T04:42:26.941Z,16.73
2022-09-07T04:52:29.948Z,16.93
2022-09-07T05:02:33.603Z,17.02
2022-09-07T05:12:36.531Z,16.97
2022-09-07T05:22:41.220Z,17.23
2022-09-07T05:32:47.631Z,17.81
2022-09-07T05:42:50.700Z,18.28
2022-09-07T05:52:53.931Z,18.70
2022-09-07T06:02:56.923Z,18.88
2022-09-07T06:13:00.010Z,19.55
2022-09-07T06:23:02.990Z,19.83
2022-09-07T06:33:05.918Z,20.66
2022-09-07T06:43:09.612Z,21.15
2022-09-07T07:03:36.510Z,22.50
2022-09-07T07:13:41.100Z,22.66
2022-09-07T07:23:44.198Z,23.32
2022-09-07T07:33:48.423Z,23.50
2022-09-07T07:44:00.529Z,24.31
2022-09-07T07:54:03.747Z,24.92
2022-09-07T08:04:06.674Z,24.69
2022-09-07T08:14:09.687Z,25.52
2022-09-07T08:24:12.584Z,25.81
2022-09-07T08:34:15.735Z,25.94
2022-09-07T08:44:41.582Z,26.59
2022-09-07T08:54:53.317Z,27.08
2022-09-07T09:15:34.287Z,28.38
2022-09-07T09:25:40.065Z,28.07
2022-09-07T09:35:44.574Z,27.85
2022-09-07T09:56:14.565Z,29.28
2022-09-07T10:06:19.567Z,29.08
2022-09-07T10:16:40.435Z,29.94
2022-09-07T10:26:44.909Z,27.30
2022-09-07T10:37:00.087Z,29.87
2022-09-07T10:47:24.835Z,27.99
2022-09-07T10:57:49.143Z,28.89
2022-09-07T11:07:52.300Z,30.00
2022-09-07T11:18:01.162Z,30.33
2022-09-07T11:28:14.675Z,27.77
2022-09-07T11:38:31.084Z,28.63
2022-09-07T11:48:46.032Z,29.48
2022-09-07T11:59:05.414Z,30.92
2022-09-07T12:09:17.051Z,29.09
2022-09-07T12:19:25.333Z,30.80
2022-09-07T12:29:30.027Z,29.66
2022-09-07T12:39:34.502Z,29.85
2022-09-07T12:50:12.342Z,28.47
2022-09-07T13:00:39.139Z,30.50
2022-09-07T13:10:43.897Z,29.50
2022-09-07T13:21:06.810Z,28.67
2022-09-07T13:31:51.692Z,28.30
2022-09-07T13:41:59.101Z,28.60
2022-09-07T13:52:17.134Z,29.23
2022-09-07T14:02:24.036Z,28.84
2022-09-07T14:12:31.444Z,29.35
2022-09-07T14:22:35.591Z,28.87
2022-09-07T14:32:38.919Z,28.41
2022-09-07T14:42:42.935Z,27.19
2022-09-07T15:03:31.892Z,26.65
2022-09-07T15:13:36.383Z,26.50
2022-09-07T15:23:39.842Z,25.94
2022-09-07T15:33:42.858Z,26.06
2022-09-07T15:43:47.833Z,26.13
2022-09-07T15:54:08.017Z,25.87
2022-09-07T16:04:15.561Z,26.00
2022-09-07T16:14:18.537Z,25.89
2022-09-07T16:24:21.505Z,25.77
2022-09-07T16:34:24.853Z,25.36
2022-09-07T16:44:28.125Z,25.21
2022-09-07T16:54:32.657Z,25.01
2022-09-07T17:04:35.624Z,24.76
2022-09-07T17:14:40.140Z,24.50
2022-09-07T17:24:43.056Z,24.21
2022-09-07T17:34:45.996Z,23.76
2022-09-07T17:44:52.777Z,23.49
2022-09-07T17:54:57.968Z,23.18
2022-09-07T18:05:02.768Z,22.87
2022-09-07T18:15:06.715Z,22.82
2022-09-07T18:25:10.439Z,22.77
2022-09-07T18:35:13.877Z,22.66
2022-09-07T18:45:33.694Z,22.29
2022-09-07T18:55:36.979Z,22.10
2022-09-07T19:05:56.436Z,22.04
2022-09-07T19:16:14.645Z,21.69
2022-09-07T19:26:18.010Z,21.52
2022-09-07T19:36:21.687Z,21.43
2022-09-07T19:46:25.325Z,21.41
2022-09-07T19:56:28.948Z,21.30
2022-09-07T20:06:34.845Z,21.20
2022-09-07T20:16:39.686Z,21.06
2022-09-07T20:26:43.059Z,20.71
2022-09-07T20:36:49.507Z,20.75
2022-09-07T20:46:52.504Z,20.30
2022-09-07T20:56:55.556Z,20.15
2022-09-07T21:06:58.533Z,20.10
2022-09-07T21:17:03.893Z,19.87
2022-09-07T21:27:07.836Z,19.88
2022-09-07T21:37:10.840Z,19.88
2022-09-07T21:47:13.880Z,19.86
2022-09-07T21:57:16.896Z,19.70
2022-09-07T22:07:20.545Z,19.47
2022-09-07T22:17:23.528Z,19.51
2022-09-07T22:27:26.538Z,19.45
2022-09-07T22:37:30.626Z,19.28
2022-09-07T22:47:33.751Z,19.26
2022-09-07T22:57:37.565Z,18.79
2022-09-07T23:07:42.231Z,18.80
2022-09-07T23:17:45.751Z,18.87
2022-09-07T23:27:48.986Z,18.91
2022-09-07T23:37:52.009Z,18.81
2022-09-07T23:47:54.888Z,18.72
2022-09-07T23:57:57.892Z,18.78
